Terminal Aerodrome Forecast
Issued by NWS

Home | Current Version | Previous Version | Graphics & Text | Print | Product List | Glossary On
Versions: 1 2 3 4 5 6 7 8 9 10 11 12 13
000
FTUS43 KABR 182300 AAD
TAFMBG
TAF AMD
KMBG 182316Z 1823/1918 16011KT P6SM BKN250
     FM190200 14007KT P6SM SCT250
     FM191700 33012KT P6SM SKC=

USA.gov is the U.S. government's official web portal to all federal, state and local government web resources and services.